Time;durP1;ratioP1;P1;durP2;ratioP2;P2;SDS_P1;SDS_P2;PMS_P1;PMS_P2;Temp;Humidity;BMP_temperature;BMP_pressure;BME280_temperature;BME280_humidity;BME280_pressure;Samples;Min_cycle;Max_cycle;Signal;HPM_P1;HPM_P2
2023/04/08 00:02:07;;;;;;;2.72;1.67;;;;;;;;;;5032112;28;20081;-65
2023/04/08 00:04:37;;;;;;;4.18;2.20;;;;;;;;;;5033086;28;20505;-64
2023/04/08 00:07:07;;;;;;;4.25;1.92;;;;;;;;;;5034162;28;20486;-65
2023/04/08 00:09:37;;;;;;;4.15;1.98;;;;;;;;;;4999074;28;20053;-64
2023/04/08 00:12:07;;;;;;;5.78;1.80;;;;;;;;;;5034400;28;20577;-64
2023/04/08 00:14:37;;;;;;;3.50;1.63;;;;;;;;;;5016048;28;20054;-65
2023/04/08 00:17:07;;;;;;;7.70;1.88;;;;;;;;;;4983313;28;20497;-65
2023/04/08 00:19:37;;;;;;;3.13;1.63;;;;;;;;;;4959709;28;20047;-64
2023/04/08 00:22:07;;;;;;;4.85;1.95;;;;;;;;;;4992229;28;20058;-65
2023/04/08 00:24:37;;;;;;;4.30;1.92;;;;;;;;;;4992064;28;20058;-65
2023/04/08 00:27:07;;;;;;;5.10;1.80;;;;;;;;;;4992253;28;20077;-65
2023/04/08 00:29:36;;;;;;;6.15;1.60;;;;;;;;;;4992365;28;20051;-65
2023/04/08 00:32:06;;;;;;;7.65;1.80;;;;;;;;;;4959400;28;20058;-65
2023/04/08 00:34:37;;;;;;;9.02;2.10;;;;;;;;;;4943936;28;20061;-65
2023/04/08 00:37:07;;;;;;;5.68;1.60;;;;;;;;;;4992200;28;20058;-65
2023/04/08 00:39:37;;;;;;;7.50;1.90;;;;;;;;;;4972406;28;20073;-65
2023/04/08 00:42:07;;;;;;;3.78;2.17;;;;;;;;;;4956117;28;20524;-65
2023/04/08 00:44:37;;;;;;;5.60;2.05;;;;;;;;;;4972505;28;20055;-65
2023/04/08 00:47:11;;;;;;;4.53;1.88;;;;;;;;;;4972405;28;20054;-65
2023/04/08 00:49:41;;;;;;;5.38;1.90;;;;;;;;;;4972106;28;20156;-65
2023/04/08 00:52:11;;;;;;;5.25;2.17;;;;;;;;;;4972434;28;20050;-65
2023/04/08 00:54:41;;;;;;;5.43;2.10;;;;;;;;;;4972347;28;20050;-64
2023/04/08 00:57:11;;;;;;;3.20;2.00;;;;;;;;;;4936205;29;20538;-65
2023/04/08 00:59:41;;;;;;;4.35;1.60;;;;;;;;;;4952672;29;20060;-64
2023/04/08 01:02:49;;;;;;;5.95;1.90;;;;;;;;;;4952748;29;20063;-65
2023/04/08 01:05:32;;;;;;;5.78;1.92;;;;;;;;;;4948110;28;20055;-65
2023/04/08 01:08:06;;;;;;;6.22;1.90;;;;;;;;;;4933887;29;20070;-64
2023/04/08 01:10:40;;;;;;;6.30;2.35;;;;;;;;;;4941614;29;20086;-64
2023/04/08 01:13:13;;;;;;;2.67;1.73;;;;;;;;;;4952678;29;20528;-64
2023/04/08 01:15:45;;;;;;;5.78;1.95;;;;;;;;;;4917718;29;20055;-65
2023/04/08 01:18:16;;;;;;;3.22;1.63;;;;;;;;;;4920754;29;20546;-63
2023/04/08 01:20:49;;;;;;;4.72;2.15;;;;;;;;;;4952497;29;20059;-64
2023/04/08 01:23:24;;;;;;;;;;;;;;;;;;4952572;29;20508;-64
2023/04/08 01:25:55;;;;;;;3.13;1.60;;;;;;;;;;4936339;29;20306;-64
2023/04/08 01:28:30;;;;;;;3.05;1.60;;;;;;;;;;4915639;29;20194;-65
2023/04/08 01:31:01;;;;;;;6.65;1.75;;;;;;;;;;4919032;29;20056;-64
2023/04/08 01:33:31;;;;;;;4.30;2.08;;;;;;;;;;4952420;29;20059;-64
2023/04/08 01:36:03;;;;;;;3.58;1.70;;;;;;;;;;4977388;28;20054;-64
2023/04/08 01:38:38;;;;;;;4.60;2.22;;;;;;;;;;4955690;28;20047;-63
2023/04/08 01:41:10;;;;;;;3.75;2.00;;;;;;;;;;4955376;28;20063;-64
2023/04/08 01:43:42;;;;;;;6.03;1.92;;;;;;;;;;4971549;28;20555;-64
2023/04/08 01:46:12;;;;;;;6.50;1.55;;;;;;;;;;4924848;29;20048;-64
2023/04/08 01:48:43;;;;;;;3.35;1.67;;;;;;;;;;4948579;29;20419;-64
2023/04/08 01:51:15;;;;;;;8.57;2.15;;;;;;;;;;4904552;29;20055;-64
2023/04/08 01:53:45;;;;;;;4.85;2.03;;;;;;;;;;4951668;29;20043;-64
2023/04/08 01:56:15;;;;;;;5.53;1.88;;;;;;;;;;4909312;29;20060;-64
2023/04/08 01:58:53;;;;;;;5.13;1.67;;;;;;;;;;4876122;29;20168;-64
2023/04/08 02:01:26;;;;;;;4.95;1.98;;;;;;;;;;4894473;29;20049;-65
2023/04/08 02:03:57;;;;;;;9.25;2.15;;;;;;;;;;4875880;29;20061;-64
2023/04/08 02:06:28;;;;;;;7.72;2.25;;;;;;;;;;4875443;29;20045;-65
2023/04/08 02:09:00;;;;;;;5.13;1.83;;;;;;;;;;4857312;29;20526;-64
2023/04/08 02:11:30;;;;;;;3.20;1.80;;;;;;;;;;4842172;29;20088;-65
2023/04/08 02:14:00;;;;;;;5.03;2.20;;;;;;;;;;4857116;29;20065;-65
2023/04/08 02:17:01;;;;;;;7.18;2.60;;;;;;;;;;4856969;29;20088;-64
2023/04/08 02:19:45;;;;;;;7.75;2.67;;;;;;;;;;4802044;29;20560;-64
2023/04/08 02:22:43;;;;;;;10.18;2.55;;;;;;;;;;4784182;29;20055;-64
2023/04/08 02:25:15;;;;;;;8.40;2.63;;;;;;;;;;4802174;29;20548;-64
2023/04/08 02:27:48;;;;;;;9.43;2.45;;;;;;;;;;4799267;29;20058;-65
2023/04/08 02:30:19;;;;;;;7.88;2.80;;;;;;;;;;4752342;30;20074;-65
2023/04/08 02:32:50;;;;;;;10.65;2.92;;;;;;;;;;4783922;29;20067;-65
2023/04/08 02:35:22;;;;;;;7.75;2.83;;;;;;;;;;4814213;29;20070;-65
2023/04/08 02:37:51;;;;;;;6.53;2.53;;;;;;;;;;4784192;29;20063;-64
2023/04/08 02:40:28;;;;;;;6.78;3.80;;;;;;;;;;4801935;29;20089;-64
2023/04/08 02:42:59;;;;;;;7.07;2.70;;;;;;;;;;4783764;29;20076;-65
2023/04/08 02:45:37;;;;;;;10.65;3.20;;;;;;;;;;4783746;29;20417;-65
2023/04/08 02:48:07;;;;;;;8.25;3.40;;;;;;;;;;4784016;29;20067;-65
2023/04/08 02:50:37;;;;;;;6.72;3.30;;;;;;;;;;4818761;29;20061;-64
2023/04/08 02:53:08;;;;;;;13.70;3.90;;;;;;;;;;4820053;29;20057;-64
2023/04/08 02:55:38;;;;;;;12.30;4.05;;;;;;;;;;4796675;29;20053;-65
2023/04/08 02:58:08;;;;;;;9.60;3.80;;;;;;;;;;4856302;29;20057;-65
2023/04/08 03:00:38;;;;;;;8.82;4.20;;;;;;;;;;4862313;29;20064;-65
2023/04/08 03:03:08;;;;;;;9.02;4.55;;;;;;;;;;4862997;29;20528;-65
2023/04/08 03:05:38;;;;;;;12.02;3.90;;;;;;;;;;4873243;29;20071;-65
2023/04/08 03:08:08;;;;;;;10.82;4.63;;;;;;;;;;4913016;29;20408;-65
2023/04/08 03:10:38;;;;;;;10.32;4.43;;;;;;;;;;4912407;29;20052;-65
2023/04/08 03:13:07;;;;;;;8.65;4.53;;;;;;;;;;4912768;29;20051;-64
2023/04/08 03:15:37;;;;;;;11.75;4.72;;;;;;;;;;4840773;29;20065;-64
2023/04/08 03:18:07;;;;;;;9.32;4.22;;;;;;;;;;4874895;29;20056;-65
2023/04/08 03:20:37;;;;;;;17.80;4.97;;;;;;;;;;4884227;29;20468;-65
2023/04/08 03:23:07;;;;;;;10.30;3.65;;;;;;;;;;4893703;29;20052;-65
2023/04/08 03:25:36;;;;;;;9.45;3.72;;;;;;;;;;4910050;29;20048;-65
2023/04/08 03:28:06;;;;;;;17.70;3.88;;;;;;;;;;4936872;29;20047;-65
2023/04/08 03:30:36;;;;;;;9.70;3.50;;;;;;;;;;4971271;28;20089;-65
2023/04/08 03:33:06;;;;;;;15.32;3.50;;;;;;;;;;4993287;28;20580;-65
2023/04/08 03:35:37;;;;;;;10.32;4.45;;;;;;;;;;4993243;28;20051;-65
2023/04/08 03:38:07;;;;;;;16.33;6.07;;;;;;;;;;4944647;28;20294;-65
2023/04/08 03:40:37;;;;;;;16.00;6.80;;;;;;;;;;4993142;28;20220;-64
2023/04/08 03:43:07;;;;;;;15.20;7.47;;;;;;;;;;4977084;28;20764;-64
2023/04/08 03:45:37;;;;;;;16.05;7.25;;;;;;;;;;4944588;28;20414;-64
2023/04/08 03:48:07;;;;;;;16.70;6.82;;;;;;;;;;4993164;28;20042;-64
2023/04/08 03:50:37;;;;;;;17.88;6.25;;;;;;;;;;4993102;28;20049;-65
2023/04/08 03:53:10;;;;;;;12.15;5.70;;;;;;;;;;4978355;28;20053;-65
2023/04/08 03:55:39;;;;;;;13.38;5.90;;;;;;;;;;4999592;28;20045;-65
2023/04/08 03:58:09;;;;;;;12.80;5.60;;;;;;;;;;5034920;28;20064;-65
2023/04/08 04:00:40;;;;;;;13.50;5.78;;;;;;;;;;4999696;28;20401;-65
2023/04/08 04:03:11;;;;;;;10.65;5.22;;;;;;;;;;5034719;28;20049;-64
2023/04/08 04:05:41;;;;;;;17.75;4.97;;;;;;;;;;5028189;28;20053;-65
2023/04/08 04:08:11;;;;;;;11.20;4.88;;;;;;;;;;4998987;28;20049;-65
2023/04/08 04:10:41;;;;;;;11.80;5.18;;;;;;;;;;5031795;28;20058;-65
2023/04/08 04:13:11;;;;;;;14.35;5.30;;;;;;;;;;5032097;28;20045;-65
2023/04/08 04:15:41;;;;;;;19.33;6.10;;;;;;;;;;4982314;28;20054;-64
2023/04/08 04:18:11;;;;;;;13.25;5.35;;;;;;;;;;5015153;28;20060;-64
2023/04/08 04:20:42;;;;;;;12.85;5.85;;;;;;;;;;5031752;28;20045;-65
2023/04/08 04:23:12;;;;;;;11.25;6.10;;;;;;;;;;5032152;28;20054;-64
2023/04/08 04:25:43;;;;;;;12.88;6.15;;;;;;;;;;4995144;28;20058;-65
2023/04/08 04:28:13;;;;;;;11.40;5.75;;;;;;;;;;4992165;28;20046;-64
2023/04/08 04:30:43;;;;;;;12.77;5.20;;;;;;;;;;4992290;28;20057;-65
2023/04/08 04:33:12;;;;;;;11.07;5.70;;;;;;;;;;4991932;28;20057;-65
2023/04/08 04:35:43;;;;;;;11.73;5.30;;;;;;;;;;4960466;28;20050;-65
2023/04/08 04:38:12;;;;;;;12.02;5.53;;;;;;;;;;4960396;28;20054;-64
2023/04/08 04:40:43;;;;;;;12.25;6.22;;;;;;;;;;4992079;28;20388;-64
2023/04/08 04:43:13;;;;;;;11.93;5.32;;;;;;;;;;4983166;28;20059;-65
2023/04/08 04:45:43;;;;;;;12.35;5.78;;;;;;;;;;4972746;28;20058;-64
2023/04/08 04:48:13;;;;;;;10.85;4.47;;;;;;;;;;4972509;28;20070;-65
2023/04/08 04:50:43;;;;;;;17.00;5.35;;;;;;;;;;4956375;28;20054;-65
2023/04/08 04:53:13;;;;;;;12.27;5.10;;;;;;;;;;4956249;28;20062;-64
2023/04/08 04:55:42;;;;;;;12.80;5.75;;;;;;;;;;4972405;28;20067;-64
2023/04/08 04:58:12;;;;;;;13.82;5.50;;;;;;;;;;4972288;28;20095;-64
2023/04/08 05:00:42;;;;;;;10.57;5.30;;;;;;;;;;4972360;28;20534;-65
2023/04/08 05:03:12;;;;;;;12.77;4.72;;;;;;;;;;4932920;28;20046;-65
2023/04/08 05:05:42;;;;;;;12.63;5.20;;;;;;;;;;4987980;28;20049;-65
2023/04/08 05:08:11;;;;;;;10.73;5.10;;;;;;;;;;5025419;28;20064;-65
2023/04/08 05:10:41;;;;;;;10.13;5.47;;;;;;;;;;5033418;28;20041;-65
2023/04/08 05:13:11;;;;;;;11.02;5.40;;;;;;;;;;5033059;28;20050;-65
2023/04/08 05:15:40;;;;;;;12.30;5.45;;;;;;;;;;5033165;28;20064;-65
2023/04/08 05:18:11;;;;;;;14.65;5.45;;;;;;;;;;5033113;28;20041;-65
2023/04/08 05:20:41;;;;;;;11.80;5.18;;;;;;;;;;4998751;28;20053;-64
2023/04/08 05:23:10;;;;;;;11.80;5.50;;;;;;;;;;5014978;28;20497;-65
2023/04/08 05:25:40;;;;;;;11.98;5.45;;;;;;;;;;4998427;28;20045;-65
2023/04/08 05:28:10;;;;;;;12.27;4.85;;;;;;;;;;5033036;28;20057;-65
2023/04/08 05:30:40;;;;;;;9.18;4.70;;;;;;;;;;5033073;28;20049;-65
2023/04/08 05:33:10;;;;;;;9.90;5.20;;;;;;;;;;4997966;28;20058;-65
2023/04/08 05:35:40;;;;;;;18.15;6.03;;;;;;;;;;4981985;28;20053;-65
2023/04/08 05:38:10;;;;;;;9.52;5.10;;;;;;;;;;5032515;28;20075;-65
2023/04/08 05:40:40;;;;;;;10.38;5.30;;;;;;;;;;5010530;28;20046;-65
2023/04/08 05:43:10;;;;;;;12.73;5.47;;;;;;;;;;5010632;28;20062;-65
2023/04/08 05:45:39;;;;;;;13.88;5.55;;;;;;;;;;5010655;28;20058;-65
2023/04/08 05:48:09;;;;;;;11.18;4.95;;;;;;;;;;5010416;28;20057;-63
2023/04/08 05:50:39;;;;;;;10.35;5.57;;;;;;;;;;4961313;28;20062;-64
2023/04/08 05:53:09;;;;;;;11.07;5.20;;;;;;;;;;5010437;28;20560;-64
2023/04/08 05:55:40;;;;;;;12.43;5.35;;;;;;;;;;4977775;28;20068;-65
2023/04/08 05:58:10;;;;;;;10.23;5.53;;;;;;;;;;5010165;28;20060;-65
2023/04/08 06:00:39;;;;;;;14.38;6.05;;;;;;;;;;4962477;28;20058;-65
2023/04/08 06:03:09;;;;;;;11.82;5.03;;;;;;;;;;4961522;28;20434;-64
2023/04/08 06:05:39;;;;;;;14.45;6.63;;;;;;;;;;5010091;28;20097;-65
2023/04/08 06:08:09;;;;;;;10.13;5.35;;;;;;;;;;5010324;28;20494;-65
2023/04/08 06:10:39;;;;;;;10.75;4.80;;;;;;;;;;5009870;28;20572;-65
2023/04/08 06:13:10;;;;;;;10.20;5.50;;;;;;;;;;4990307;28;20049;-65
2023/04/08 06:15:39;;;;;;;10.48;5.75;;;;;;;;;;4989774;28;20050;-65
2023/04/08 06:18:09;;;;;;;11.80;5.32;;;;;;;;;;4982474;28;20057;-65
2023/04/08 06:20:40;;;;;;;12.05;5.07;;;;;;;;;;4930506;28;20498;-65
2023/04/08 06:23:10;;;;;;;9.95;5.00;;;;;;;;;;4993351;28;20053;-65
2023/04/08 06:25:39;;;;;;;11.27;5.93;;;;;;;;;;5009490;28;20418;-66
2023/04/08 06:28:09;;;;;;;10.20;6.10;;;;;;;;;;5009573;28;20069;-65
2023/04/08 06:30:39;;;;;;;14.60;5.60;;;;;;;;;;5009577;28;20093;-65
2023/04/08 06:33:08;;;;;;;12.77;5.25;;;;;;;;;;5009372;28;20069;-65
2023/04/08 06:35:38;;;;;;;13.25;6.45;;;;;;;;;;5009495;28;20061;-65
2023/04/08 06:38:08;;;;;;;12.82;5.13;;;;;;;;;;4993190;28;20057;-65
2023/04/08 06:40:39;;;;;;;12.48;5.28;;;;;;;;;;4960127;28;20057;-64
2023/04/08 06:43:09;;;;;;;9.07;5.20;;;;;;;;;;4962257;28;20061;-65
2023/04/08 06:45:41;;;;;;;10.82;4.60;;;;;;;;;;4989598;28;20066;-65
2023/04/08 06:48:11;;;;;;;12.02;4.90;;;;;;;;;;4910492;28;20522;-65
2023/04/08 06:50:42;;;;;;;10.73;5.25;;;;;;;;;;4957084;28;20066;-65
2023/04/08 06:53:12;;;;;;;10.98;4.97;;;;;;;;;;4900076;29;20062;-65
2023/04/08 06:55:42;;;;;;;9.88;5.30;;;;;;;;;;4931633;29;20052;-65
2023/04/08 06:58:14;;;;;;;22.15;5.60;;;;;;;;;;4931729;29;20054;-65
2023/04/08 07:00:44;;;;;;;11.05;5.20;;;;;;;;;;4899987;29;20503;-65
2023/04/08 07:03:14;;;;;;;25.38;5.60;;;;;;;;;;4921436;29;20055;-65
2023/04/08 07:05:44;;;;;;;12.15;5.10;;;;;;;;;;4931558;29;20060;-65
2023/04/08 07:08:14;;;;;;;9.40;5.05;;;;;;;;;;4915501;29;20055;-65
2023/04/08 07:10:44;;;;;;;9.93;5.32;;;;;;;;;;4915997;29;20523;-64
2023/04/08 07:13:15;;;;;;;12.50;5.45;;;;;;;;;;4931627;29;20047;-65
2023/04/08 07:15:45;;;;;;;12.82;4.60;;;;;;;;;;4900662;29;20055;-65
2023/04/08 07:18:15;;;;;;;11.30;4.70;;;;;;;;;;4903321;29;20574;-65
2023/04/08 07:20:50;;;;;;;12.65;4.30;;;;;;;;;;4931328;29;20063;-65
2023/04/08 07:23:20;;;;;;;10.98;4.97;;;;;;;;;;4919304;29;20442;-65
2023/04/08 07:25:50;;;;;;;18.52;5.40;;;;;;;;;;4919141;29;20071;-65
2023/04/08 07:28:20;;;;;;;21.45;5.65;;;;;;;;;;4950606;29;20060;-65
2023/04/08 07:30:50;;;;;;;15.77;5.70;;;;;;;;;;4922938;28;20569;-65
2023/04/08 07:33:20;;;;;;;50.42;11.95;;;;;;;;;;4972986;28;20058;-65
2023/04/08 07:35:50;;;;;;;36.95;11.10;;;;;;;;;;4989595;28;20066;-65
2023/04/08 07:38:20;;;;;;;42.30;12.13;;;;;;;;;;4989519;28;20119;-65
2023/04/08 07:40:50;;;;;;;41.50;11.77;;;;;;;;;;5000051;28;20057;-65
2023/04/08 07:43:20;;;;;;;45.40;11.23;;;;;;;;;;5030887;28;20061;-65
2023/04/08 07:45:50;;;;;;;42.70;11.40;;;;;;;;;;5031249;28;20050;-65
2023/04/08 07:48:20;;;;;;;47.38;11.77;;;;;;;;;;5030696;28;20049;-65
2023/04/08 07:50:49;;;;;;;42.00;11.93;;;;;;;;;;5030915;28;20045;-65
2023/04/08 07:53:39;;;;;;;38.60;10.13;;;;;;;;;;5030777;28;20037;-65
2023/04/08 07:56:17;;;;;;;46.90;12.13;;;;;;;;;;4980627;28;20413;-65
2023/04/08 07:58:49;;;;;;;40.25;9.57;;;;;;;;;;5009113;28;20059;-65
2023/04/08 08:01:22;;;;;;;42.22;9.75;;;;;;;;;;4995781;28;20057;-66
2023/04/08 08:03:54;;;;;;;46.03;11.57;;;;;;;;;;5030658;28;20405;-65
2023/04/08 08:06:24;;;;;;;40.88;10.63;;;;;;;;;;5030713;28;20056;-65
2023/04/08 08:08:54;;;;;;;38.03;10.27;;;;;;;;;;4995724;28;20046;-65
2023/04/08 08:11:25;;;;;;;45.15;10.77;;;;;;;;;;5030561;28;20045;-65
2023/04/08 08:13:55;;;;;;;41.22;9.75;;;;;;;;;;4981397;28;20049;-65
2023/04/08 08:16:29;;;;;;;46.17;10.90;;;;;;;;;;4982684;28;20501;-65
2023/04/08 08:19:00;;;;;;;42.42;10.13;;;;;;;;;;5034210;28;20049;-65
2023/04/08 08:21:30;;;;;;;41.30;10.77;;;;;;;;;;4999184;28;20060;-66
2023/04/08 08:24:00;;;;;;;35.30;10.15;;;;;;;;;;5034150;28;20046;-65
2023/04/08 08:26:30;;;;;;;38.10;10.57;;;;;;;;;;4999347;28;20064;-65
2023/04/08 08:29:00;;;;;;;40.33;10.45;;;;;;;;;;5033923;28;20045;-65
2023/04/08 08:31:30;;;;;;;40.25;10.27;;;;;;;;;;5034035;28;20049;-65
2023/04/08 08:34:00;;;;;;;38.22;9.85;;;;;;;;;;5034306;28;20049;-65
2023/04/08 08:36:30;;;;;;;42.85;9.68;;;;;;;;;;5034019;28;20052;-64
2023/04/08 08:39:02;;;;;;;47.10;10.85;;;;;;;;;;5015150;28;20052;-65
2023/04/08 08:41:37;;;;;;;42.25;10.02;;;;;;;;;;5015568;28;20059;-65
2023/04/08 08:44:09;;;;;;;49.58;11.82;;;;;;;;;;5033951;28;20393;-65
2023/04/08 08:46:47;;;;;;;42.97;10.98;;;;;;;;;;5033912;28;20057;-66
2023/04/08 08:49:17;;;;;;;42.67;11.13;;;;;;;;;;4999495;28;20060;-65
2023/04/08 08:51:47;;;;;;;40.33;10.80;;;;;;;;;;5033393;28;20061;-65
2023/04/08 08:54:17;;;;;;;43.50;12.05;;;;;;;;;;5033827;28;20037;-65
2023/04/08 08:56:47;;;;;;;45.70;10.82;;;;;;;;;;4998726;28;20512;-65
2023/04/08 08:59:17;;;;;;;39.25;10.57;;;;;;;;;;5033627;28;20477;-64
2023/04/08 09:01:47;;;;;;;34.67;9.60;;;;;;;;;;4982467;28;20064;-65
2023/04/08 09:04:21;;;;;;;40.90;10.57;;;;;;;;;;4983823;28;20062;-65
2023/04/08 09:07:12;;;;;;;35.40;10.20;;;;;;;;;;4998310;28;20084;-65
2023/04/08 09:09:50;;;;;;;36.80;9.73;;;;;;;;;;4998639;28;20057;-65
2023/04/08 09:12:21;;;;;;;42.45;10.82;;;;;;;;;;5033247;28;20056;-66
2023/04/08 09:15:01;;;;;;;41.10;11.60;;;;;;;;;;5014950;28;20436;-65
2023/04/08 09:17:36;;;;;;;37.42;10.98;;;;;;;;;;4997948;28;20073;-65
2023/04/08 09:20:11;;;;;;;36.00;10.52;;;;;;;;;;5014372;28;20045;-65
2023/04/08 09:23:01;;;;;;;39.95;10.88;;;;;;;;;;4991234;28;20050;-65
2023/04/08 09:25:34;;;;;;;38.78;11.15;;;;;;;;;;4990482;28;20138;-65
2023/04/08 09:28:04;;;;;;;41.85;12.13;;;;;;;;;;4991161;28;20050;-65
2023/04/08 09:30:34;;;;;;;40.47;10.15;;;;;;;;;;4991133;28;20542;-65
2023/04/08 09:33:06;;;;;;;34.42;10.05;;;;;;;;;;4956886;28;20065;-65
2023/04/08 09:35:36;;;;;;;38.13;11.00;;;;;;;;;;4974850;28;20065;-65
2023/04/08 09:38:07;;;;;;;35.63;10.18;;;;;;;;;;4990883;28;20050;-64
2023/04/08 09:40:38;;;;;;;32.25;9.82;;;;;;;;;;4974943;28;20474;-65
2023/04/08 09:43:12;;;;;;;30.77;9.38;;;;;;;;;;4927310;28;20057;-65
2023/04/08 09:45:45;;;;;;;35.63;10.20;;;;;;;;;;4990561;28;20411;-65
2023/04/08 09:48:23;;;;;;;37.75;10.40;;;;;;;;;;4990620;28;20062;-65
2023/04/08 09:50:56;;;;;;;33.38;9.88;;;;;;;;;;4974471;28;20066;-65
2023/04/08 09:53:40;;;;;;;32.30;9.73;;;;;;;;;;4990803;28;20123;-64
2023/04/08 09:56:13;;;;;;;35.63;9.45;;;;;;;;;;4990695;28;20058;-65
2023/04/08 09:58:53;;;;;;;35.17;9.88;;;;;;;;;;4990571;28;20065;-65
2023/04/08 10:01:38;;;;;;;38.85;9.32;;;;;;;;;;4976921;28;20054;-65
2023/04/08 10:04:11;;;;;;;37.90;9.48;;;;;;;;;;4978497;28;20057;-65
2023/04/08 10:06:42;;;;;;;28.90;9.13;;;;;;;;;;5012458;28;20050;-65
2023/04/08 10:09:12;;;;;;;30.48;8.55;;;;;;;;;;4994289;28;20066;-65
2023/04/08 10:11:42;;;;;;;28.45;8.43;;;;;;;;;;4977566;28;20421;-64
2023/04/08 10:14:12;;;;;;;31.13;8.73;;;;;;;;;;4986447;28;20054;-65
2023/04/08 10:16:42;;;;;;;20.08;6.55;;;;;;;;;;5012348;28;20046;-65
2023/04/08 10:19:40;;;;;;;20.75;7.25;;;;;;;;;;5012229;28;20050;-65
2023/04/08 10:22:29;;;;;;;19.33;6.57;;;;;;;;;;4993919;28;20050;-65
2023/04/08 10:25:17;;;;;;;20.85;7.10;;;;;;;;;;5012300;28;20052;-65
2023/04/08 10:27:50;;;;;;;26.70;6.32;;;;;;;;;;5012121;28;20045;-66
2023/04/08 10:30:31;;;;;;;19.48;6.95;;;;;;;;;;5012405;28;20497;-66
2023/04/08 10:33:02;;;;;;;22.85;6.60;;;;;;;;;;5012154;28;20053;-66
2023/04/08 10:35:35;;;;;;;22.33;6.50;;;;;;;;;;5010084;28;20068;-65
2023/04/08 10:38:07;;;;;;;22.15;6.75;;;;;;;;;;4961482;28;20054;-65
2023/04/08 10:40:38;;;;;;;8.35;3.50;;;;;;;;;;5012049;28;20490;-65
2023/04/08 10:43:13;;;;;;;11.18;4.90;;;;;;;;;;4977796;28;20517;-65
2023/04/08 10:45:44;;;;;;;10.50;4.15;;;;;;;;;;4989779;28;20057;-65
2023/04/08 10:48:24;;;;;;;9.05;3.78;;;;;;;;;;4989731;28;20077;-65
2023/04/08 10:50:57;;;;;;;13.13;5.07;;;;;;;;;;4989753;28;20057;-66
2023/04/08 10:53:34;;;;;;;18.50;5.72;;;;;;;;;;4989247;28;20042;-65
2023/04/08 10:56:13;;;;;;;23.88;7.30;;;;;;;;;;4955450;28;20051;-65
2023/04/08 10:58:57;;;;;;;22.92;7.63;;;;;;;;;;4995854;28;20391;-65
2023/04/08 11:01:36;;;;;;;21.88;6.95;;;;;;;;;;4999505;28;20042;-66
2023/04/08 11:04:22;;;;;;;11.40;4.50;;;;;;;;;;4950235;29;20523;-65
2023/04/08 11:06:52;;;;;;;14.52;5.47;;;;;;;;;;4930036;29;20052;-66
2023/04/08 11:09:22;;;;;;;11.57;4.10;;;;;;;;;;4914987;29;20044;-66
2023/04/08 11:11:52;;;;;;;13.13;4.43;;;;;;;;;;4915251;29;20519;-66
2023/04/08 11:14:24;;;;;;;9.80;3.85;;;;;;;;;;4907455;29;20626;-66
2023/04/08 11:16:54;;;;;;;8.52;3.75;;;;;;;;;;4915844;29;20056;-65
2023/04/08 11:19:24;;;;;;;6.95;3.30;;;;;;;;;;4931673;29;20159;-66
2023/04/08 11:21:54;;;;;;;15.55;5.47;;;;;;;;;;4929986;29;20048;-66
2023/04/08 11:24:24;;;;;;;21.00;8.82;;;;;;;;;;4907988;29;20052;-65
2023/04/08 11:26:54;;;;;;;20.35;6.55;;;;;;;;;;4928910;29;20056;-65
2023/04/08 11:29:24;;;;;;;16.15;5.78;;;;;;;;;;4931463;29;20056;-66
2023/04/08 11:31:54;;;;;;;17.13;6.50;;;;;;;;;;4931409;29;20436;-65
2023/04/08 11:34:25;;;;;;;15.60;7.57;;;;;;;;;;4914962;29;20063;-66
2023/04/08 11:36:57;;;;;;;12.60;4.45;;;;;;;;;;4917583;28;20052;-66
2023/04/08 11:39:27;;;;;;;14.13;4.88;;;;;;;;;;4967105;28;20056;-66
2023/04/08 11:41:57;;;;;;;9.23;4.55;;;;;;;;;;5004652;28;20080;-66
2023/04/08 11:44:31;;;;;;;8.05;3.25;;;;;;;;;;5030464;28;20033;-67
2023/04/08 11:47:01;;;;;;;7.70;3.13;;;;;;;;;;5030445;28;20477;-67
2023/04/08 11:49:44;;;;;;;6.20;3.22;;;;;;;;;;5014928;28;20041;-66
2023/04/08 11:52:14;;;;;;;5.38;2.88;;;;;;;;;;5033131;28;21007;-67
2023/04/08 11:54:45;;;;;;;8.05;2.95;;;;;;;;;;5034066;28;20038;-66
2023/04/08 11:57:27;;;;;;;6.95;3.15;;;;;;;;;;5025383;28;20052;-65
2023/04/08 11:59:57;;;;;;;7.32;3.50;;;;;;;;;;5031088;28;20544;-66
2023/04/08 12:02:26;;;;;;;8.27;3.03;;;;;;;;;;5000335;28;20062;-66
2023/04/08 12:04:57;;;;;;;8.38;3.63;;;;;;;;;;5016923;28;20045;-66
2023/04/08 12:07:27;;;;;;;7.57;3.17;;;;;;;;;;5034392;28;20041;-66
2023/04/08 12:09:56;;;;;;;7.63;3.67;;;;;;;;;;5011496;28;20048;-66
2023/04/08 12:12:26;;;;;;;8.13;3.70;;;;;;;;;;4995464;28;20174;-66
2023/04/08 12:14:56;;;;;;;10.80;4.10;;;;;;;;;;5012255;28;20069;-66
2023/04/08 12:17:26;;;;;;;5.90;3.30;;;;;;;;;;4979461;28;20528;-65
2023/04/08 12:19:56;;;;;;;7.35;3.70;;;;;;;;;;5012208;28;20442;-66
2023/04/08 12:22:26;;;;;;;7.30;4.10;;;;;;;;;;5011920;28;20514;-67
2023/04/08 12:24:56;;;;;;;9.55;3.78;;;;;;;;;;4980241;28;20518;-66
2023/04/08 12:27:26;;;;;;;31.88;11.30;;;;;;;;;;5011875;28;20109;-66
2023/04/08 12:29:56;;;;;;;8.77;4.53;;;;;;;;;;4979134;28;20072;-66
2023/04/08 12:32:26;;;;;;;11.30;4.90;;;;;;;;;;4986493;28;20085;-66
2023/04/08 12:34:56;;;;;;;8.63;4.88;;;;;;;;;;4994567;28;20066;-66
2023/04/08 12:37:26;;;;;;;38.72;14.52;;;;;;;;;;4994438;28;20054;-66
2023/04/08 12:39:56;;;;;;;35.05;13.48;;;;;;;;;;4994992;28;20052;-66
2023/04/08 12:42:26;;;;;;;135.15;56.40;;;;;;;;;;5011113;28;20057;-67
2023/04/08 12:44:56;;;;;;;11.85;7.18;;;;;;;;;;4963007;28;20060;-66
2023/04/08 12:47:26;;;;;;;8.00;4.22;;;;;;;;;;4996116;28;20064;-66
2023/04/08 12:49:55;;;;;;;9.48;5.07;;;;;;;;;;5014738;28;20528;-67
2023/04/08 12:52:25;;;;;;;7.68;3.35;;;;;;;;;;5033367;28;20041;-66
2023/04/08 12:54:55;;;;;;;17.02;3.75;;;;;;;;;;5033251;28;20041;-65
2023/04/08 12:57:26;;;;;;;6.18;3.83;;;;;;;;;;5031428;28;20046;-65
2023/04/08 12:59:56;;;;;;;6.95;4.47;;;;;;;;;;4981846;28;20053;-67
2023/04/08 13:02:26;;;;;;;7.07;3.95;;;;;;;;;;5015079;28;20052;-66
2023/04/08 13:04:56;;;;;;;6.45;3.60;;;;;;;;;;4982490;28;20605;-66
2023/04/08 13:07:25;;;;;;;4.93;2.78;;;;;;;;;;5014928;28;20049;-67
2023/04/08 13:09:55;;;;;;;7.57;2.72;;;;;;;;;;5033356;28;20046;-67
2023/04/08 13:12:25;;;;;;;5.50;2.60;;;;;;;;;;5014838;28;20436;-67
2023/04/08 13:14:55;;;;;;;5.72;2.33;;;;;;;;;;5033136;28;20041;-67
2023/04/08 13:17:25;;;;;;;5.70;2.90;;;;;;;;;;4998270;28;20069;-67
2023/04/08 13:19:55;;;;;;;5.03;2.88;;;;;;;;;;5033121;28;20053;-67
2023/04/08 13:22:24;;;;;;;9.65;3.45;;;;;;;;;;4999197;28;20068;-66
2023/04/08 13:24:54;;;;;;;6.72;2.67;;;;;;;;;;5032817;28;20061;-66
2023/04/08 13:27:24;;;;;;;5.45;2.17;;;;;;;;;;5033099;28;20049;-66
2023/04/08 13:29:54;;;;;;;4.88;2.47;;;;;;;;;;5032908;28;20050;-66
2023/04/08 13:32:25;;;;;;;8.10;2.78;;;;;;;;;;5014345;28;20065;-66
2023/04/08 13:34:55;;;;;;;6.50;2.50;;;;;;;;;;4998122;28;20437;-66
2023/04/08 13:37:26;;;;;;;4.32;2.40;;;;;;;;;;5032207;28;20057;-66
2023/04/08 13:39:56;;;;;;;5.30;2.55;;;;;;;;;;5030535;28;20054;-66
2023/04/08 13:42:26;;;;;;;5.80;2.67;;;;;;;;;;5032934;28;20489;-66
2023/04/08 13:44:56;;;;;;;5.00;2.10;;;;;;;;;;5032553;28;20050;-65
2023/04/08 13:47:26;;;;;;;6.47;2.50;;;;;;;;;;5031417;28;20052;-66
2023/04/08 13:49:56;;;;;;;5.38;2.92;;;;;;;;;;5032199;28;20048;-66
2023/04/08 13:52:27;;;;;;;4.68;2.83;;;;;;;;;;4997844;28;20053;-66
2023/04/08 13:54:57;;;;;;;4.68;2.60;;;;;;;;;;4997427;28;20057;-66
2023/04/08 13:57:27;;;;;;;4.85;2.65;;;;;;;;;;5031053;28;20053;-66
2023/04/08 13:59:57;;;;;;;5.82;3.55;;;;;;;;;;5031713;28;20064;-66
2023/04/08 14:02:27;;;;;;;6.05;2.72;;;;;;;;;;5036500;28;20048;-66
2023/04/08 14:04:57;;;;;;;5.90;3.00;;;;;;;;;;5037839;28;20046;-67
2023/04/08 14:07:27;;;;;;;4.63;2.75;;;;;;;;;;5021790;28;20037;-67
2023/04/08 14:09:56;;;;;;;6.30;3.85;;;;;;;;;;5048706;28;20037;-67
2023/04/08 14:12:26;;;;;;;4.95;2.70;;;;;;;;;;5051857;28;20070;-67
2023/04/08 14:14:57;;;;;;;5.38;2.55;;;;;;;;;;5052003;28;20489;-67
2023/04/08 14:17:26;;;;;;;8.48;3.53;;;;;;;;;;5017082;28;20056;-66
2023/04/08 14:19:58;;;;;;;4.45;2.45;;;;;;;;;;5034804;28;20052;-66
2023/04/08 14:22:28;;;;;;;6.35;2.90;;;;;;;;;;5048759;28;20037;-64
2023/04/08 14:24:58;;;;;;;7.50;4.05;;;;;;;;;;5043289;28;20500;-67
2023/04/08 14:27:27;;;;;;;11.80;5.03;;;;;;;;;;5033021;28;20574;-67
2023/04/08 14:29:58;;;;;;;6.38;3.58;;;;;;;;;;5051938;28;20064;-68
2023/04/08 14:32:28;;;;;;;5.00;3.08;;;;;;;;;;5033169;28;20056;-67
2023/04/08 14:34:58;;;;;;;5.40;2.95;;;;;;;;;;5044758;28;20045;-66
2023/04/08 14:37:28;;;;;;;7.07;3.25;;;;;;;;;;5031634;28;20037;-66
2023/04/08 14:39:58;;;;;;;10.45;5.80;;;;;;;;;;5038566;28;20037;-65
2023/04/08 14:42:28;;;;;;;7.35;3.35;;;;;;;;;;5038637;28;20525;-66
2023/04/08 14:44:57;;;;;;;5.43;2.60;;;;;;;;;;5016682;28;20055;-65
2023/04/08 14:47:27;;;;;;;6.65;2.78;;;;;;;;;;4999444;28;20060;-66
2023/04/08 14:49:57;;;;;;;6.05;3.00;;;;;;;;;;5030752;28;20374;-65
2023/04/08 14:52:26;;;;;;;13.00;3.95;;;;;;;;;;5031313;28;20508;-65
2023/04/08 14:54:56;;;;;;;4.72;2.75;;;;;;;;;;5033516;28;20097;-65
2023/04/08 14:57:26;;;;;;;5.53;2.80;;;;;;;;;;5004099;28;20053;-65
2023/04/08 14:59:56;;;;;;;7.88;3.63;;;;;;;;;;5014072;28;20057;-65